Aérodrome :
LOGIN :

S'inscrire | Disclaimer

   EN    FR    IT 

 










Légende :    VFR   VFR Marginal   IFR   IFR Intensif   IFR Très Intensif
Visi : 
Plafond : 
>= 8 km
>= 3000ft
5 à 8 km
1000 à 3000 ft
1500m à 5 km
500 à 1000 ft
800 à 1500m
200 à 500 ft
< 800m
< 200 ft
Symboles :   Orages  Brouillard  Fortes neiges  Fortes précipitations  Vent > 20 kt
SIGMETs :   Divers  Orages  Givrage  Turbulence  Onde Orograph.  Cendres Volcan.







- Altitude de l'aérodrome : 24 ft
- Code IATA : SGD


EKSB - Sonderborg

DERNIER METAR :
  • 160820Z AUTO 25007KT 220V300 9999NDV SCT027/// 18/12 Q1017

METARs EXPIRÉS :
  • 160750Z AUTO 26008KT 220V300 9999NDV FEW027/// 18/12 Q1017
  • 160720Z AUTO 23006KT 190V270 9999NDV NCD 17/12 Q1017
  • 160650Z AUTO 25006KT 210V290 9999NDV NCD 16/12 Q1017
  • 160620Z AUTO 24004KT 180V320 9999NDV NCD 16/12 Q1017
  • 160550Z AUTO 24006KT 200V270 9999NDV NCD 15/11 Q1017

Prévision TAF périmée.
Pas de NOTAMs connus pour ce terrain.



MET'MAP, la Météo Aéronautique d'un coup d'oeil ! - Copyright ORBIFLY Décembre 2007 - Disclaimer

ORBIFLY MET'MAP TEAM :

Programmation & Développement : Alexandra Zaïnal
Conception & Développement : Baudouin d'Aumeries
Co-Programmation & Développement : Marc-Olivier Méhu
Soutien technique & logistique : Manuel Goepfert

Contact : metmap@orbifly.com




SOURCES & CREDITS :

   NOAA